Time;durP1;ratioP1;P1;durP2;ratioP2;P2;SDS_P1;SDS_P2;PMS_P1;PMS_P2;Temp;Humidity;BMP_temperature;BMP_pressure;BME280_temperature;BME280_humidity;BME280_pressure;Samples;Min_cycle;Max_cycle;Signal;HPM_P1;HPM_P2
2021/05/03 00:01:49;;;;;;;4.75;4.28;;;5.70;97.10;;;;;;4992316;28;20727;-76
2021/05/03 00:04:16;;;;;;;4.82;4.40;;;5.70;97.20;;;;;;4962607;28;20709;-76
2021/05/03 00:06:42;;;;;;;5.15;4.10;;;5.70;97.20;;;;;;4994053;28;20238;-76
2021/05/03 00:09:09;;;;;;;5.35;4.85;;;5.60;97.40;;;;;;4992860;28;20627;-76
2021/05/03 00:11:36;;;;;;;7.88;4.05;;;5.60;97.70;;;;;;4976999;28;20613;-76
2021/05/03 00:14:03;;;;;;;5.97;3.90;;;5.60;97.70;;;;;;4976061;28;20258;-76
2021/05/03 00:16:30;;;;;;;5.78;4.05;;;5.60;97.90;;;;;;4960824;28;20234;-76
2021/05/03 00:18:56;;;;;;;4.72;4.30;;;5.50;98.60;;;;;;4991703;28;20218;-76
2021/05/03 00:21:25;;;;;;;6.28;4.78;;;5.50;98.10;;;;;;4966304;28;20219;-76
2021/05/03 00:23:51;;;;;;;4.78;4.20;;;5.50;98.00;;;;;;4956598;28;20246;-76
2021/05/03 00:26:18;;;;;;;7.60;4.35;;;5.50;98.10;;;;;;4966615;28;20290;-76
2021/05/03 00:28:45;;;;;;;6.60;4.10;;;5.50;98.20;;;;;;4993217;28;20253;-76
2021/05/03 00:31:11;;;;;;;5.88;5.05;;;5.50;98.30;;;;;;4993288;28;20193;-76
2021/05/03 00:33:37;;;;;;;10.20;4.90;;;5.50;98.20;;;;;;4975873;28;20229;-76
2021/05/03 00:36:04;;;;;;;5.93;3.95;;;5.50;98.10;;;;;;4993445;28;20210;-76
2021/05/03 00:38:31;;;;;;;5.28;4.18;;;5.50;98.40;;;;;;4992784;28;20249;-76
2021/05/03 00:40:59;;;;;;;5.50;4.75;;;5.50;98.40;;;;;;4975641;28;20197;-76
2021/05/03 00:43:26;;;;;;;7.00;5.00;;;5.50;98.40;;;;;;4992942;28;20218;-76
2021/05/03 00:45:53;;;;;;;5.75;4.53;;;5.40;98.60;;;;;;4993304;28;20214;-76
2021/05/03 00:48:20;;;;;;;6.93;4.78;;;5.40;98.60;;;;;;4990846;28;20583;-76
2021/05/03 00:50:48;;;;;;;5.45;4.03;;;5.40;98.60;;;;;;4975366;28;20202;-76
2021/05/03 00:53:15;;;;;;;5.80;4.72;;;5.40;98.50;;;;;;4991344;28;20237;-76
2021/05/03 00:55:42;;;;;;;5.72;5.15;;;5.40;98.50;;;;;;4975411;28;20215;-76
2021/05/03 00:58:09;;;;;;;6.03;4.15;;;5.40;98.60;;;;;;4992274;28;20305;-76
2021/05/03 01:00:36;;;;;;;7.30;4.70;;;5.40;98.50;;;;;;4976009;28;20276;-76
2021/05/03 01:03:05;;;;;;;5.30;4.80;;;5.40;98.50;;;;;;4959388;28;20218;-76
2021/05/03 01:05:33;;;;;;;4.82;4.32;;;5.40;98.50;;;;;;4978344;28;20221;-76
2021/05/03 01:08:01;;;;;;;3.70;3.40;;;5.40;99.00;;;;;;4975491;28;20230;-76
2021/05/03 01:10:28;;;;;;;6.60;4.40;;;5.30;98.60;;;;;;5000900;28;20198;-76
2021/05/03 01:12:55;;;;;;;8.35;4.63;;;5.40;98.60;;;;;;4975473;28;20235;-76
2021/05/03 01:15:25;;;;;;;7.50;4.20;;;5.30;98.80;;;;;;4992384;28;20663;-76
2021/05/03 01:17:57;;;;;;;4.60;4.18;;;5.30;98.80;;;;;;4992414;28;20294;-76
2021/05/03 01:20:30;;;;;;;6.00;4.00;;;5.30;98.80;;;;;;4974175;28;20195;-76
2021/05/03 01:22:58;;;;;;;5.28;4.70;;;5.30;98.90;;;;;;4991224;28;20230;-76
2021/05/03 01:25:30;;;;;;;4.93;4.15;;;5.40;98.70;;;;;;4958457;28;20253;-76
2021/05/03 01:27:58;;;;;;;4.57;4.18;;;5.40;98.70;;;;;;4990665;28;20222;-77
2021/05/03 01:30:36;;;;;;;5.32;4.82;;;5.30;98.60;;;;;;4975699;28;20210;-76
2021/05/03 01:33:05;;;;;;;7.90;4.43;;;5.30;98.80;;;;;;4991357;28;20301;-76
2021/05/03 01:35:33;;;;;;;7.57;4.53;;;5.30;98.70;;;;;;4974893;28;20696;-76
2021/05/03 01:38:02;;;;;;;6.05;4.10;;;5.40;98.70;;;;;;4991439;28;20310;-76
2021/05/03 01:40:30;;;;;;;7.05;4.60;;;5.40;98.80;;;;;;4958713;28;20225;-76
2021/05/03 01:43:09;;;;;;;7.40;4.35;;;5.40;98.80;;;;;;4974040;28;20222;-76
2021/05/03 01:45:37;;;;;;;5.40;4.43;;;5.30;98.80;;;;;;4992121;28;20206;-76
2021/05/03 01:48:04;;;;;;;5.43;3.95;;;5.30;98.90;;;;;;4974330;28;20222;-76
2021/05/03 01:50:31;;;;;;;5.78;5.18;;;5.30;98.90;;;;;;4958142;28;20222;-76
2021/05/03 01:52:57;;;;;;;5.10;4.60;;;5.30;99.00;;;;;;4990061;28;20225;-76
2021/05/03 01:55:24;;;;;;;4.88;4.30;;;5.30;99.10;;;;;;4973648;28;20187;-76
2021/05/03 01:57:50;;;;;;;4.93;4.45;;;5.20;99.20;;;;;;4990311;28;20218;-76
2021/05/03 02:00:17;;;;;;;4.45;4.07;;;5.20;99.30;;;;;;4974765;28;20209;-76
2021/05/03 02:02:46;;;;;;;5.60;4.63;;;5.20;99.30;;;;;;4973595;28;20317;-76
2021/05/03 02:05:17;;;;;;;6.30;5.45;;;5.10;99.30;;;;;;4973912;28;20494;-76
2021/05/03 02:07:44;;;;;;;8.75;4.80;;;5.10;99.50;;;;;;4969243;28;20693;-76
2021/05/03 02:10:11;;;;;;;8.20;5.32;;;5.20;99.90;;;;;;4981635;28;20273;-76
2021/05/03 02:12:39;;;;;;;4.82;4.43;;;5.20;99.40;;;;;;4973932;28;20302;-76
2021/05/03 02:15:07;;;;;;;4.95;4.50;;;5.20;99.30;;;;;;4972598;28;20187;-76
2021/05/03 02:17:34;;;;;;;5.40;4.72;;;5.20;99.30;;;;;;4979551;28;20230;-76
2021/05/03 02:20:02;;;;;;;6.75;4.40;;;5.20;99.20;;;;;;4980106;28;20260;-76
2021/05/03 02:22:28;;;;;;;5.55;4.53;;;5.20;99.00;;;;;;4991495;28;20257;-76
2021/05/03 02:24:55;;;;;;;5.32;4.60;;;5.20;98.80;;;;;;4974456;28;20289;-76
2021/05/03 02:27:21;;;;;;;5.30;4.80;;;5.20;99.00;;;;;;4991169;28;20215;-76
2021/05/03 02:29:48;;;;;;;5.43;4.22;;;5.20;99.10;;;;;;4991612;28;20192;-76
2021/05/03 02:32:14;;;;;;;6.15;4.90;;;5.10;99.20;;;;;;4962679;28;20201;-77
2021/05/03 02:34:41;;;;;;;5.53;4.97;;;5.10;99.80;;;;;;4994659;28;20543;-76
2021/05/03 02:37:08;;;;;;;8.30;4.88;;;5.20;99.20;;;;;;4995347;28;20285;-76
2021/05/03 02:39:35;;;;;;;6.75;4.72;;;5.10;99.00;;;;;;4980626;28;20194;-76
2021/05/03 02:42:02;;;;;;;7.28;4.97;;;5.10;99.20;;;;;;4974134;28;20205;-76
2021/05/03 02:44:29;;;;;;;5.38;4.03;;;5.00;99.50;;;;;;4977519;28;20312;-76
2021/05/03 02:46:56;;;;;;;4.72;4.25;;;4.90;99.60;;;;;;4995498;28;20210;-76
2021/05/03 02:49:22;;;;;;;5.43;4.53;;;4.90;99.90;;;;;;4976842;28;20305;-76
2021/05/03 02:51:49;;;;;;;5.97;5.00;;;4.90;99.90;;;;;;4958238;28;20576;-76
2021/05/03 02:54:15;;;;;;;7.68;4.82;;;4.90;99.90;;;;;;4977586;28;20609;-76
2021/05/03 02:56:48;;;;;;;6.75;5.30;;;4.80;99.90;;;;;;4996043;28;20233;-76
2021/05/03 02:59:15;;;;;;;6.70;4.90;;;4.70;99.90;;;;;;5010243;28;20679;-76
2021/05/03 03:01:41;;;;;;;8.52;4.65;;;4.70;99.90;;;;;;4997055;28;20186;-78
2021/05/03 03:04:08;;;;;;;5.50;4.97;;;4.70;99.90;;;;;;5010098;28;20229;-76
2021/05/03 03:06:34;;;;;;;7.32;5.03;;;4.60;99.90;;;;;;5001615;28;20210;-76
2021/05/03 03:09:01;;;;;;;10.55;5.63;;;4.60;99.90;;;;;;4988688;28;20309;-75
2021/05/03 03:11:28;;;;;;;5.85;4.75;;;4.50;99.90;;;;;;4963362;28;20603;-74
2021/05/03 03:13:54;;;;;;;6.38;4.97;;;4.50;99.90;;;;;;4975596;28;20624;-76
2021/05/03 03:16:22;;;;;;;10.88;5.78;;;4.40;99.90;;;;;;4994633;28;20680;-77
2021/05/03 03:18:49;;;;;;;7.97;5.88;;;4.50;99.90;;;;;;4975694;28;20222;-76
2021/05/03 03:21:16;;;;;;;6.95;5.10;;;4.40;99.90;;;;;;4990079;28;20555;-74
2021/05/03 03:23:42;;;;;;;7.00;5.22;;;4.40;99.90;;;;;;4978203;28;20215;-76
2021/05/03 03:26:09;;;;;;;7.80;5.70;;;4.30;99.90;;;;;;4971428;28;20712;-75
2021/05/03 03:28:35;;;;;;;6.00;5.05;;;4.20;99.90;;;;;;4961340;28;20224;-76
2021/05/03 03:31:02;;;;;;;6.60;5.88;;;4.10;99.90;;;;;;4977585;28;20204;-77
2021/05/03 03:33:28;;;;;;;6.55;5.20;;;4.10;99.90;;;;;;4988964;28;20729;-77
2021/05/03 03:35:55;;;;;;;8.13;4.82;;;4.00;99.90;;;;;;4987392;28;20717;-75
2021/05/03 03:38:21;;;;;;;10.32;6.30;;;4.00;99.90;;;;;;4991009;28;20222;-77
2021/05/03 03:40:48;;;;;;;10.50;8.13;;;3.90;99.90;;;;;;4977794;28;20218;-76
2021/05/03 03:43:15;;;;;;;7.55;5.32;;;3.90;99.90;;;;;;4968440;28;20592;-75
2021/05/03 03:45:41;;;;;;;10.07;7.03;;;3.90;99.90;;;;;;4994322;28;20215;-76
2021/05/03 03:48:08;;;;;;;12.32;6.45;;;3.80;99.90;;;;;;4979943;28;20226;-74
2021/05/03 03:50:34;;;;;;;9.27;6.25;;;3.80;99.90;;;;;;4984657;28;20210;-74
2021/05/03 03:53:01;;;;;;;11.88;6.30;;;3.80;99.90;;;;;;4986162;28;20719;-75
2021/05/03 03:55:28;;;;;;;8.50;5.55;;;3.80;99.90;;;;;;4986417;28;20592;-77
2021/05/03 03:57:54;;;;;;;8.02;5.22;;;3.70;99.90;;;;;;4989563;28;20219;-75
2021/05/03 04:00:22;;;;;;;7.90;6.18;;;3.70;99.90;;;;;;4976459;28;20195;-77
2021/05/03 04:02:49;;;;;;;6.40;5.53;;;3.60;99.90;;;;;;4962261;28;20226;-75
2021/05/03 04:05:29;;;;;;;8.35;6.32;;;3.50;99.90;;;;;;4988208;28;20201;-75
2021/05/03 04:08:09;;;;;;;9.70;5.40;;;3.40;99.90;;;;;;4976136;28;20245;-77
2021/05/03 04:10:50;;;;;;;10.32;5.60;;;3.30;99.90;;;;;;4992611;28;20208;-76
2021/05/03 04:24:26;;;;;;;7.35;4.75;;;3.20;99.90;;;;;;4991713;28;20587;-77
2021/05/03 04:26:52;;;;;;;8.00;5.35;;;3.10;99.90;;;;;;4987385;28;20301;-76
2021/05/03 04:29:19;;;;;;;5.15;4.15;;;3.10;99.90;;;;;;4992628;28;20309;-76
2021/05/03 04:31:45;;;;;;;5.45;4.78;;;3.10;99.90;;;;;;4963749;28;20238;-76
2021/05/03 04:34:12;;;;;;;6.38;5.20;;;3.10;99.90;;;;;;4957711;28;20234;-75
2021/05/03 04:36:38;;;;;;;9.95;4.88;;;3.10;99.90;;;;;;4992685;28;20297;-76
2021/05/03 04:39:05;;;;;;;8.45;6.00;;;3.10;99.90;;;;;;4993081;28;20222;-74
2021/05/03 04:41:31;;;;;;;5.63;4.72;;;3.10;99.90;;;;;;4974658;28;20274;-77
2021/05/03 04:43:57;;;;;;;6.90;5.90;;;3.10;99.90;;;;;;4972218;28;20217;-76
2021/05/03 04:46:24;;;;;;;7.25;5.35;;;3.10;99.90;;;;;;4984244;28;20199;-76
2021/05/03 04:48:50;;;;;;;7.22;5.60;;;3.20;99.90;;;;;;4975040;28;20228;-75
2021/05/03 04:51:16;;;;;;;6.80;5.43;;;3.20;99.90;;;;;;4991234;28;20651;-76
2021/05/03 04:53:43;;;;;;;7.53;6.03;;;3.40;99.90;;;;;;4978160;28;20334;-77
2021/05/03 04:56:09;;;;;;;8.73;6.55;;;3.50;99.90;;;;;;4974026;28;20290;-77
2021/05/03 04:58:35;;;;;;;6.10;5.00;;;3.60;99.90;;;;;;4976774;28;20214;-74
2021/05/03 05:01:06;;;;;;;9.68;7.30;;;3.70;99.90;;;;;;4977062;28;20214;-76
2021/05/03 05:03:33;;;;;;;8.63;6.13;;;3.80;99.90;;;;;;4985761;28;20299;-74
2021/05/03 05:06:00;;;;;;;10.57;7.00;;;4.00;99.90;;;;;;4980369;28;20721;-76
2021/05/03 05:08:26;;;;;;;9.75;6.75;;;4.10;99.90;;;;;;4987209;28;20594;-75
2021/05/03 05:10:52;;;;;;;10.82;6.68;;;4.20;99.90;;;;;;4957217;28;20221;-75
2021/05/03 05:13:19;;;;;;;12.70;7.68;;;4.20;99.90;;;;;;4980074;28;20704;-76
2021/05/03 05:15:47;;;;;;;9.95;7.57;;;4.30;99.90;;;;;;4978220;28;20214;-75
2021/05/03 05:18:15;;;;;;;10.20;7.22;;;4.30;99.90;;;;;;4973470;28;20245;-75
2021/05/03 05:20:42;;;;;;;8.70;6.95;;;4.40;99.90;;;;;;4992723;28;20619;-74
2021/05/03 05:23:09;;;;;;;10.55;7.60;;;4.40;99.90;;;;;;4970835;28;20593;-75
2021/05/03 05:25:36;;;;;;;7.65;6.70;;;4.40;99.90;;;;;;4971760;28;20294;-75
2021/05/03 05:28:03;;;;;;;11.38;7.03;;;4.60;99.90;;;;;;4986490;28;20711;-76
2021/05/03 05:30:30;;;;;;;6.80;6.15;;;4.60;99.90;;;;;;4980968;28;20214;-75
2021/05/03 05:32:57;;;;;;;8.90;6.32;;;4.70;99.90;;;;;;4983050;28;20313;-75
2021/05/03 05:35:23;;;;;;;8.93;6.88;;;4.70;99.90;;;;;;4986625;28;20194;-76
2021/05/03 05:37:50;;;;;;;7.88;6.72;;;4.70;99.90;;;;;;4986436;28;20219;-73
2021/05/03 05:40:16;;;;;;;7.25;5.80;;;4.80;99.90;;;;;;4959844;28;20211;-76
2021/05/03 05:42:42;;;;;;;8.50;5.85;;;4.80;99.90;;;;;;4980108;28;20246;-75
2021/05/03 05:45:10;;;;;;;8.63;7.20;;;4.80;99.90;;;;;;4945193;28;20218;-74
2021/05/03 05:47:36;;;;;;;7.00;6.30;;;4.80;99.90;;;;;;4972550;28;20238;-74
2021/05/03 05:50:04;;;;;;;7.07;6.38;;;4.90;99.90;;;;;;4956510;28;20195;-74
2021/05/03 05:52:31;;;;;;;7.82;6.45;;;4.90;99.90;;;;;;4972929;28;20398;-75
2021/05/03 05:54:57;;;;;;;9.90;6.63;;;5.00;99.90;;;;;;4972938;28;20198;-74
2021/05/03 05:57:24;;;;;;;9.43;6.43;;;5.00;99.90;;;;;;4972791;28;20223;-77
2021/05/03 05:59:50;;;;;;;7.38;6.35;;;5.10;99.90;;;;;;4985478;28;20193;-75
2021/05/03 06:02:17;;;;;;;9.25;6.22;;;5.20;99.90;;;;;;4966518;28;20190;-78
2021/05/03 06:04:43;;;;;;;6.75;5.95;;;5.40;99.90;;;;;;4978785;28;20565;-74
2021/05/03 06:07:12;;;;;;;8.40;6.55;;;5.50;99.90;;;;;;4948763;28;20213;-76
2021/05/03 06:09:55;;;;;;;8.55;6.22;;;5.90;99.90;;;;;;4974014;28;20265;-74
2021/05/03 06:12:22;;;;;;;7.45;5.78;;;6.20;99.90;;;;;;4988220;28;20197;-74
2021/05/03 06:14:50;;;;;;;8.40;6.85;;;6.60;99.90;;;;;;4957672;28;20278;-75
2021/05/03 06:17:17;;;;;;;12.13;7.15;;;6.70;99.90;;;;;;4962540;28;20210;-75
2021/05/03 06:19:44;;;;;;;6.85;6.20;;;6.90;99.90;;;;;;4958043;28;20221;-75
2021/05/03 06:22:11;;;;;;;7.32;6.47;;;7.20;99.90;;;;;;4956961;28;20653;-75
2021/05/03 06:24:39;;;;;;;13.07;6.97;;;7.60;99.90;;;;;;4964565;28;20200;-78
2021/05/03 06:27:05;;;;;;;6.40;5.80;;;8.10;99.90;;;;;;4972238;28;20210;-74
2021/05/03 06:29:32;;;;;;;12.85;7.30;;;8.70;99.90;;;;;;4974525;28;20240;-74
2021/05/03 06:31:59;;;;;;;8.73;4.77;;;9.10;97.40;;;;;;4969996;28;20179;-75
2021/05/03 06:34:31;;;;;;;5.63;4.87;;;9.30;94.90;;;;;;4962086;28;20490;-75
2021/05/03 06:36:58;;;;;;;5.90;5.00;;;9.70;92.90;;;;;;4960140;28;20450;-73
2021/05/03 06:39:26;;;;;;;6.60;3.87;;;9.90;91.50;;;;;;4968251;28;20474;-76
2021/05/03 06:41:53;;;;;;;5.30;4.40;;;10.10;87.20;;;;;;4985529;28;20441;-76
2021/05/03 06:44:20;;;;;;;5.20;4.70;;;10.40;86.70;;;;;;4988210;28;20472;-74
2021/05/03 06:46:47;;;;;;;3.80;3.37;;;10.80;84.10;;;;;;4962151;28;20515;-74
2021/05/03 06:49:14;;;;;;;6.57;3.30;;;11.10;73.70;;;;;;4986271;28;20481;-74
2021/05/03 06:51:50;;;;;;;3.93;3.43;;;11.40;73.10;;;;;;4972826;28;20990;-74
2021/05/03 06:54:23;;;;;;;3.10;2.73;;;11.50;70.60;;;;;;4969997;28;20469;-75
2021/05/03 06:56:52;;;;;;;4.80;2.60;;;11.40;70.50;;;;;;4978672;28;20460;-76
2021/05/03 06:59:19;;;;;;;4.83;2.90;;;11.30;68.10;;;;;;4955891;28;20844;-75
2021/05/03 07:01:46;;;;;;;4.77;3.10;;;11.30;69.60;;;;;;4959163;28;20442;-75
2021/05/03 07:04:13;;;;;;;8.45;3.60;;;11.20;68.70;;;;;;4969921;28;20466;-76
2021/05/03 07:06:39;;;;;;;4.23;2.97;;;11.20;68.90;;;;;;4981524;28;20639;-75
2021/05/03 07:09:20;;;;;;;4.33;2.87;;;11.20;68.30;;;;;;4987130;28;20477;-75
2021/05/03 07:11:52;;;;;;;7.85;2.80;;;11.20;66.60;;;;;;4975907;28;20453;-76
2021/05/03 07:14:20;;;;;;;3.30;2.77;;;11.30;66.50;;;;;;4959411;28;20222;-76
2021/05/03 07:16:50;;;;;;;6.33;3.17;;;11.40;64.30;;;;;;4954991;28;20505;-74
2021/05/03 07:19:17;;;;;;;4.40;3.13;;;11.60;64.60;;;;;;4963874;28;20549;-74
2021/05/03 07:21:44;;;;;;;3.03;2.73;;;11.50;62.10;;;;;;4977761;28;21007;-74
2021/05/03 07:24:11;;;;;;;4.97;2.57;;;11.50;62.70;;;;;;4993661;28;20878;-76
2021/05/03 07:26:40;;;;;;;3.77;3.03;;;11.60;62.20;;;;;;4977413;28;20475;-74
2021/05/03 07:29:09;;;;;;;4.57;2.80;;;11.60;59.60;;;;;;4969734;28;20915;-74
2021/05/03 07:31:39;;;;;;;5.37;2.80;;;11.80;56.90;;;;;;4980057;28;20449;-75
2021/05/03 07:34:06;;;;;;;8.13;2.83;;;11.90;58.10;;;;;;4964593;28;20556;-74
2021/05/03 07:36:33;;;;;;;4.80;2.50;;;12.10;54.50;;;;;;4970848;28;20472;-76
2021/05/03 07:38:59;;;;;;;4.13;2.67;;;12.10;54.30;;;;;;4986514;28;20472;-74
2021/05/03 07:41:26;;;;;;;3.20;2.40;;;12.10;54.70;;;;;;4969996;28;20497;-75
2021/05/03 07:43:52;;;;;;;4.90;3.00;;;12.20;55.40;;;;;;4964793;28;20545;-76
2021/05/03 07:46:24;;;;;;;4.70;3.47;;;12.30;54.30;;;;;;4984532;28;20800;-75
2021/05/03 07:48:53;;;;;;;3.77;3.33;;;12.40;55.80;;;;;;4988475;28;20505;-74
2021/05/03 07:51:19;;;;;;;8.77;4.57;;;12.30;56.70;;;;;;4960109;28;20470;-75
2021/05/03 07:53:46;;;;;;;7.77;5.27;;;12.30;58.20;;;;;;4971450;28;20477;-74
2021/05/03 07:56:15;;;;;;;8.33;5.00;;;12.20;56.70;;;;;;4965853;28;20867;-76
2021/05/03 07:58:43;;;;;;;9.37;5.37;;;12.20;58.00;;;;;;4962629;28;20484;-75
2021/05/03 08:01:10;;;;;;;12.53;5.30;;;12.20;58.60;;;;;;4994903;28;20529;-74
2021/05/03 08:03:39;;;;;;;5.63;5.00;;;12.20;58.70;;;;;;4962740;28;20530;-76
2021/05/03 08:06:07;;;;;;;6.20;5.40;;;12.20;59.40;;;;;;4981658;28;20954;-75
2021/05/03 08:08:34;;;;;;;7.10;4.97;;;12.40;59.10;;;;;;4982559;28;20984;-76
2021/05/03 08:11:04;;;;;;;6.43;5.37;;;12.60;57.00;;;;;;4961381;28;20442;-75
2021/05/03 08:13:30;;;;;;;6.87;5.17;;;12.60;58.20;;;;;;4958195;28;20474;-75
2021/05/03 08:16:00;;;;;;;7.70;6.73;;;12.70;59.90;;;;;;4969983;28;20869;-75
2021/05/03 08:18:29;;;;;;;6.13;5.40;;;12.80;58.20;;;;;;4967603;28;20562;-73
2021/05/03 08:21:01;;;;;;;6.83;6.13;;;12.90;59.00;;;;;;4960991;28;20531;-74
2021/05/03 08:23:27;;;;;;;8.10;6.70;;;12.90;57.20;;;;;;4971898;28;20480;-74
2021/05/03 08:25:55;;;;;;;6.07;5.53;;;13.00;57.30;;;;;;4980245;28;20964;-74
2021/05/03 08:28:26;;;;;;;6.00;5.27;;;13.00;57.30;;;;;;4989724;28;20474;-74
2021/05/03 08:30:54;;;;;;;6.50;4.93;;;13.10;56.40;;;;;;4976382;28;20485;-74
2021/05/03 08:33:21;;;;;;;6.67;5.97;;;13.30;55.40;;;;;;4958104;28;20465;-74
2021/05/03 08:35:48;;;;;;;5.57;5.07;;;13.20;53.90;;;;;;4966460;28;20912;-74
2021/05/03 08:38:19;;;;;;;8.53;5.43;;;13.20;51.60;;;;;;4991814;28;20516;-73
2021/05/03 08:40:46;;;;;;;6.17;5.57;;;13.20;55.30;;;;;;4964771;28;20537;-75
2021/05/03 08:43:13;;;;;;;9.00;4.63;;;13.20;53.60;;;;;;4957081;28;20471;-75
2021/05/03 08:45:41;;;;;;;6.60;5.30;;;13.30;52.30;;;;;;4987090;28;20476;-75
2021/05/03 08:48:22;;;;;;;6.47;5.20;;;13.30;53.70;;;;;;4964222;28;20562;-75
2021/05/03 08:51:11;;;;;;;6.17;5.50;;;13.20;54.90;;;;;;4970494;28;20426;-74
2021/05/03 08:53:54;;;;;;;11.70;6.40;;;13.20;53.10;;;;;;4957391;28;20470;-73
2021/05/03 08:56:20;;;;;;;5.60;4.83;;;13.30;54.00;;;;;;4974471;28;20458;-75
2021/05/03 08:58:47;;;;;;;6.17;5.23;;;13.40;52.70;;;;;;4961745;28;20913;-75
2021/05/03 09:01:22;;;;;;;6.87;6.17;;;13.50;53.20;;;;;;4983253;28;20427;-75
2021/05/03 09:03:51;;;;;;;7.30;5.67;;;13.70;52.80;;;;;;4972906;28;20465;-76
2021/05/03 09:06:19;;;;;;;6.67;5.03;;;13.80;50.40;;;;;;4974752;28;20461;-75
2021/05/03 09:09:04;;;;;;;8.17;5.40;;;13.90;49.50;;;;;;4988962;28;20469;-75
2021/05/03 09:11:31;;;;;;;5.87;5.37;;;14.00;50.00;;;;;;4983296;28;20477;-74
2021/05/03 09:14:14;;;;;;;6.50;5.77;;;14.20;48.30;;;;;;4966812;28;20667;-74
2021/05/03 09:16:45;;;;;;;6.80;5.60;;;14.30;50.30;;;;;;4979370;28;20450;-76
2021/05/03 09:19:14;;;;;;;7.10;6.37;;;14.30;50.80;;;;;;4967953;28;20477;-73
2021/05/03 09:21:43;;;;;;;9.00;6.00;;;14.40;49.30;;;;;;4976429;28;20448;-73
2021/05/03 09:24:20;;;;;;;9.67;5.93;;;14.30;46.80;;;;;;4960322;28;20454;-75
2021/05/03 09:26:56;;;;;;;6.07;5.57;;;14.30;47.70;;;;;;4991445;28;20458;-74
2021/05/03 09:29:42;;;;;;;6.77;6.17;;;14.40;49.00;;;;;;4957022;28;20473;-75
2021/05/03 09:32:24;;;;;;;7.37;5.80;;;14.40;49.50;;;;;;4959819;28;20449;-74
2021/05/03 09:34:54;;;;;;;8.07;6.40;;;14.50;48.30;;;;;;4968629;28;20453;-74
2021/05/03 09:37:25;;;;;;;11.70;5.83;;;14.40;49.60;;;;;;4969916;28;20812;-74
2021/05/03 09:40:14;;;;;;;7.53;5.70;;;14.40;49.00;;;;;;4975176;28;20427;-73
2021/05/03 09:42:52;;;;;;;7.00;5.43;;;14.50;48.60;;;;;;4975418;28;20450;-74
2021/05/03 09:45:26;;;;;;;7.13;5.80;;;14.70;48.60;;;;;;4962195;28;20426;-75
2021/05/03 09:47:55;;;;;;;9.13;5.57;;;14.70;47.40;;;;;;4976477;28;20497;-74
2021/05/03 09:50:31;;;;;;;6.40;5.80;;;14.80;48.10;;;;;;4974132;28;20466;-74
2021/05/03 09:53:01;;;;;;;6.90;6.20;;;14.80;46.80;;;;;;4979099;28;20552;-74
2021/05/03 09:55:34;;;;;;;6.37;4.97;;;14.80;48.00;;;;;;4966283;28;20469;-76
2021/05/03 09:58:17;;;;;;;6.37;5.77;;;14.90;46.60;;;;;;4973720;28;20541;-74
2021/05/03 10:00:50;;;;;;;6.57;5.20;;;14.90;49.10;;;;;;4973394;28;20439;-76
2021/05/03 10:03:45;;;;;;;7.73;5.77;;;15.10;47.90;;;;;;4967666;28;20491;-74
2021/05/03 10:06:14;;;;;;;4.97;4.47;;;15.20;47.60;;;;;;4974170;28;20456;-75
2021/05/03 10:08:45;;;;;;;5.63;5.13;;;15.30;45.30;;;;;;4984193;28;20561;-75
2021/05/03 10:11:15;;;;;;;6.20;4.20;;;15.30;45.00;;;;;;4962924;28;20534;-74
2021/05/03 10:13:47;;;;;;;5.40;4.90;;;15.20;43.90;;;;;;4962314;28;20541;-77
2021/05/03 10:16:15;;;;;;;10.00;4.67;;;15.10;43.40;;;;;;4973523;28;20457;-75
2021/05/03 10:18:43;;;;;;;5.27;4.60;;;15.00;43.30;;;;;;4987566;28;20490;-73
2021/05/03 10:21:11;;;;;;;6.23;4.70;;;14.90;44.80;;;;;;4963533;28;20438;-75
2021/05/03 10:23:45;;;;;;;5.53;5.03;;;15.00;44.70;;;;;;4979496;28;20481;-74
2021/05/03 10:26:12;;;;;;;8.33;5.30;;;14.90;42.10;;;;;;4994014;28;20467;-75
2021/05/03 10:28:52;;;;;;;6.00;5.50;;;14.90;42.60;;;;;;5002498;28;20477;-75
2021/05/03 10:31:25;;;;;;;6.73;6.10;;;14.80;44.60;;;;;;4963913;28;20442;-74
2021/05/03 10:33:52;;;;;;;6.30;5.67;;;14.80;45.30;;;;;;4968670;28;20490;-73
2021/05/03 10:36:36;;;;;;;6.57;5.93;;;14.90;44.90;;;;;;4976296;28;20489;-75
2021/05/03 10:39:27;;;;;;;6.50;5.80;;;15.00;45.90;;;;;;4978187;28;20481;-74
2021/05/03 10:42:04;;;;;;;6.63;6.03;;;15.00;45.00;;;;;;4989488;28;20811;-73
2021/05/03 10:44:30;;;;;;;9.23;6.30;;;15.00;45.80;;;;;;4946765;28;20564;-74
2021/05/03 10:47:05;;;;;;;8.07;7.07;;;15.00;46.30;;;;;;4965722;28;20899;-75
2021/05/03 10:49:46;;;;;;;7.40;6.70;;;15.10;47.20;;;;;;4963827;28;20489;-74
2021/05/03 10:52:32;;;;;;;7.10;6.40;;;15.00;46.80;;;;;;4975996;28;20434;-73
2021/05/03 10:54:58;;;;;;;8.73;7.83;;;14.70;46.60;;;;;;4985788;28;20465;-74
2021/05/03 10:57:32;;;;;;;8.43;7.60;;;14.50;49.10;;;;;;4982448;28;20485;-74
2021/05/03 11:00:00;;;;;;;8.63;7.40;;;14.30;50.10;;;;;;4973549;28;20488;-74
2021/05/03 11:02:39;;;;;;;9.97;7.70;;;14.20;51.30;;;;;;4993256;28;21049;-75
2021/05/03 11:05:27;;;;;;;9.70;8.80;;;14.10;52.10;;;;;;4963279;28;20481;-74
2021/05/03 11:08:07;;;;;;;8.50;7.80;;;14.10;52.60;;;;;;4985729;28;20477;-74
2021/05/03 11:11:12;;;;;;;10.30;7.37;;;14.10;51.90;;;;;;4978432;28;20529;-74
2021/05/03 11:13:49;;;;;;;8.77;7.93;;;14.10;51.50;;;;;;4993352;28;20479;-75
2021/05/03 11:16:33;;;;;;;8.27;7.47;;;14.20;51.70;;;;;;4978192;28;20540;-74
2021/05/03 11:19:31;;;;;;;7.27;6.70;;;14.20;51.80;;;;;;4975886;28;20474;-74
2021/05/03 11:22:03;;;;;;;6.20;5.50;;;14.30;51.00;;;;;;4973324;28;20448;-76
2021/05/03 11:24:44;;;;;;;4.47;4.07;;;14.40;49.40;;;;;;4965759;28;20457;-76
2021/05/03 11:27:19;;;;;;;3.90;3.57;;;14.70;43.30;;;;;;4984581;28;20989;-74
2021/05/03 11:29:56;;;;;;;3.90;3.60;;;14.90;44.60;;;;;;4958957;28;20473;-76
2021/05/03 11:32:37;;;;;;;4.10;3.70;;;15.10;43.80;;;;;;4958265;28;20961;-75
2021/05/03 11:37:47;;;;;;;4.50;4.10;;;15.30;43.70;;;;;;4988831;28;20472;-73
2021/05/03 11:45:29;;;;;;;5.47;4.67;;;15.30;42.70;;;;;;4981501;28;20435;-76
2021/05/03 11:47:59;;;;;;;5.43;4.30;;;15.10;46.10;;;;;;4958067;28;20479;-74
2021/05/03 11:50:28;;;;;;;5.43;4.93;;;14.90;43.60;;;;;;4991049;28;20504;-74
2021/05/03 11:53:00;;;;;;;5.63;5.13;;;14.80;45.30;;;;;;4972134;28;20489;-74
2021/05/03 11:55:27;;;;;;;5.20;4.70;;;14.60;45.40;;;;;;4977013;28;20496;-74
2021/05/03 11:57:54;;;;;;;6.67;4.97;;;14.60;45.70;;;;;;4963421;28;20905;-74
2021/05/03 12:00:24;;;;;;;7.47;5.10;;;14.40;45.60;;;;;;4969173;28;20527;-73
2021/05/03 12:03:01;;;;;;;4.70;4.30;;;14.30;45.10;;;;;;4964846;28;20471;-75
2021/05/03 12:05:30;;;;;;;4.20;3.80;;;14.40;46.10;;;;;;4988052;28;20449;-76
2021/05/03 12:07:57;;;;;;;4.70;4.30;;;14.40;46.50;;;;;;4959029;28;20474;-75
2021/05/03 12:10:23;;;;;;;5.90;5.30;;;14.30;46.90;;;;;;4971094;28;20532;-73
2021/05/03 12:12:54;;;;;;;7.87;5.47;;;14.30;47.10;;;;;;4962868;28;20477;-74
2021/05/03 12:15:26;;;;;;;5.63;5.03;;;14.40;48.30;;;;;;4960186;28;20467;-74
2021/05/03 12:18:01;;;;;;;5.07;4.67;;;14.50;47.20;;;;;;4947343;28;20525;-76
2021/05/03 12:20:30;;;;;;;4.90;4.50;;;14.60;47.00;;;;;;4979239;28;20433;-75
2021/05/03 12:23:07;;;;;;;4.67;4.23;;;14.70;47.10;;;;;;4975448;28;20462;-75
2021/05/03 12:25:40;;;;;;;9.40;5.30;;;14.70;46.60;;;;;;4968876;28;20519;-75
2021/05/03 12:28:11;;;;;;;4.83;4.33;;;14.70;46.60;;;;;;4978827;28;20516;-77
2021/05/03 12:30:39;;;;;;;7.10;5.30;;;14.80;46.20;;;;;;4958596;28;20490;-76
2021/05/03 12:33:10;;;;;;;4.10;3.70;;;14.80;47.50;;;;;;4989658;28;20549;-76
2021/05/03 12:35:37;;;;;;;4.60;4.20;;;14.80;44.80;;;;;;4974601;28;20497;-74
2021/05/03 12:38:14;;;;;;;4.70;4.30;;;14.70;44.80;;;;;;4956783;28;20907;-75
2021/05/03 12:40:41;;;;;;;4.97;4.47;;;14.60;46.00;;;;;;4969032;28;20456;-75
2021/05/03 12:43:09;;;;;;;5.40;4.93;;;14.50;44.80;;;;;;4980020;28;20467;-75
2021/05/03 12:45:42;;;;;;;5.17;4.67;;;14.30;45.60;;;;;;4960027;28;20527;-74
2021/05/03 12:48:20;;;;;;;5.40;4.90;;;14.20;45.60;;;;;;4985201;28;20573;-74
2021/05/03 12:53:36;;;;;;;5.53;5.03;;;14.00;46.70;;;;;;4972853;28;20480;-74
2021/05/03 13:29:07;;;;;;;4.27;3.87;;;13.90;47.50;;;;;;4991092;28;20488;-76
2021/05/03 13:31:35;;;;;;;4.47;4.07;;;14.00;48.20;;;;;;4969268;28;20462;-76
2021/05/03 13:34:04;;;;;;;5.43;3.63;;;14.00;48.90;;;;;;4959420;28;20980;-76
2021/05/03 13:36:32;;;;;;;4.20;3.87;;;14.00;49.60;;;;;;4986786;28;20470;-77
2021/05/03 13:38:58;;;;;;;6.00;4.60;;;14.10;49.80;;;;;;4963973;28;20664;-76
2021/05/03 13:41:32;;;;;;;3.93;3.50;;;14.10;49.40;;;;;;4970511;28;20453;-74
2021/05/03 13:43:59;;;;;;;4.17;3.87;;;14.10;47.00;;;;;;4974865;28;20505;-75
2021/05/03 13:46:26;;;;;;;4.10;3.80;;;14.10;47.00;;;;;;4974023;28;20453;-76
2021/05/03 13:48:54;;;;;;;5.00;4.50;;;14.10;48.40;;;;;;4971599;28;20805;-74
2021/05/03 13:51:22;;;;;;;4.47;3.80;;;14.20;47.30;;;;;;4984361;28;20446;-76
2021/05/03 13:53:49;;;;;;;4.53;4.13;;;14.30;48.30;;;;;;4966972;28;20861;-75
2021/05/03 13:56:16;;;;;;;5.07;4.57;;;14.40;47.40;;;;;;4969426;28;20516;-76
2021/05/03 13:58:43;;;;;;;3.77;3.47;;;14.40;48.70;;;;;;4974536;28;20878;-75